sensor_id;sensor_type;location;lat;lon;timestamp;P1;durP1;ratioP1;P2;durP2;ratioP2
16462;SDS011;8342;42.736;23.292;2022-07-19T00:00:48;4.13;;;3.50;;
16462;SDS011;8342;42.736;23.292;2022-07-19T00:03:16;5.93;;;3.90;;
16462;SDS011;8342;42.736;23.292;2022-07-19T00:05:43;4.00;;;3.60;;
16462;SDS011;8342;42.736;23.292;2022-07-19T00:08:10;7.10;;;3.27;;
16462;SDS011;8342;42.736;23.292;2022-07-19T00:10:37;5.13;;;3.70;;
16462;SDS011;8342;42.736;23.292;2022-07-19T00:13:04;4.33;;;3.53;;
16462;SDS011;8342;42.736;23.292;2022-07-19T00:15:31;5.33;;;3.97;;
16462;SDS011;8342;42.736;23.292;2022-07-19T00:17:57;9.53;;;3.53;;
16462;SDS011;8342;42.736;23.292;2022-07-19T00:20:26;6.13;;;3.47;;
16462;SDS011;8342;42.736;23.292;2022-07-19T00:22:53;5.03;;;3.77;;
16462;SDS011;8342;42.736;23.292;2022-07-19T00:25:19;4.97;;;3.30;;
16462;SDS011;8342;42.736;23.292;2022-07-19T00:27:46;4.83;;;3.37;;
16462;SDS011;8342;42.736;23.292;2022-07-19T00:30:13;4.07;;;2.90;;
16462;SDS011;8342;42.736;23.292;2022-07-19T00:32:40;4.33;;;3.10;;
16462;SDS011;8342;42.736;23.292;2022-07-19T00:35:07;4.03;;;3.40;;
16462;SDS011;8342;42.736;23.292;2022-07-19T00:37:36;8.93;;;3.80;;
16462;SDS011;8342;42.736;23.292;2022-07-19T00:40:03;3.53;;;3.23;;
16462;SDS011;8342;42.736;23.292;2022-07-19T00:42:30;4.30;;;3.50;;
16462;SDS011;8342;42.736;23.292;2022-07-19T00:44:57;3.33;;;3.03;;
16462;SDS011;8342;42.736;23.292;2022-07-19T00:47:23;3.33;;;3.07;;
16462;SDS011;8342;42.736;23.292;2022-07-19T00:49:50;4.20;;;3.20;;
16462;SDS011;8342;42.736;23.292;2022-07-19T00:52:17;3.67;;;3.30;;
16462;SDS011;8342;42.736;23.292;2022-07-19T00:54:46;2.93;;;2.60;;
16462;SDS011;8342;42.736;23.292;2022-07-19T00:57:15;4.53;;;2.67;;
16462;SDS011;8342;42.736;23.292;2022-07-19T00:59:42;3.03;;;2.73;;
16462;SDS011;8342;42.736;23.292;2022-07-19T01:02:11;2.87;;;2.20;;
16462;SDS011;8342;42.736;23.292;2022-07-19T01:04:38;2.87;;;2.67;;
16462;SDS011;8342;42.736;23.292;2022-07-19T01:07:06;4.40;;;2.57;;
16462;SDS011;8342;42.736;23.292;2022-07-19T01:09:34;2.63;;;2.43;;
16462;SDS011;8342;42.736;23.292;2022-07-19T01:12:02;3.43;;;2.87;;
16462;SDS011;8342;42.736;23.292;2022-07-19T01:14:30;4.07;;;2.47;;
16462;SDS011;8342;42.736;23.292;2022-07-19T01:16:59;4.17;;;2.77;;
16462;SDS011;8342;42.736;23.292;2022-07-19T01:19:26;3.00;;;2.40;;
16462;SDS011;8342;42.736;23.292;2022-07-19T01:21:54;2.70;;;2.50;;
16462;SDS011;8342;42.736;23.292;2022-07-19T01:24:21;3.43;;;2.87;;
16462;SDS011;8342;42.736;23.292;2022-07-19T01:26:48;3.27;;;2.30;;
16462;SDS011;8342;42.736;23.292;2022-07-19T01:29:15;4.93;;;3.20;;
16462;SDS011;8342;42.736;23.292;2022-07-19T01:31:42;3.10;;;2.73;;
16462;SDS011;8342;42.736;23.292;2022-07-19T01:34:09;4.77;;;2.53;;
16462;SDS011;8342;42.736;23.292;2022-07-19T01:36:36;3.23;;;2.40;;
16462;SDS011;8342;42.736;23.292;2022-07-19T01:39:04;3.17;;;2.53;;
16462;SDS011;8342;42.736;23.292;2022-07-19T01:41:31;3.00;;;2.60;;
16462;SDS011;8342;42.736;23.292;2022-07-19T01:43:58;4.70;;;2.80;;
16462;SDS011;8342;42.736;23.292;2022-07-19T01:46:25;3.17;;;2.87;;
16462;SDS011;8342;42.736;23.292;2022-07-19T01:48:51;3.90;;;2.67;;
16462;SDS011;8342;42.736;23.292;2022-07-19T01:51:18;2.77;;;2.57;;
16462;SDS011;8342;42.736;23.292;2022-07-19T01:53:45;3.33;;;3.03;;
16462;SDS011;8342;42.736;23.292;2022-07-19T01:56:13;2.77;;;2.43;;
16462;SDS011;8342;42.736;23.292;2022-07-19T01:58:40;2.53;;;2.33;;
16462;SDS011;8342;42.736;23.292;2022-07-19T02:01:07;5.70;;;2.83;;
16462;SDS011;8342;42.736;23.292;2022-07-19T02:03:33;5.47;;;2.87;;
16462;SDS011;8342;42.736;23.292;2022-07-19T02:06:00;4.13;;;2.57;;
16462;SDS011;8342;42.736;23.292;2022-07-19T02:08:27;3.77;;;2.40;;
16462;SDS011;8342;42.736;23.292;2022-07-19T02:10:54;7.43;;;2.90;;
16462;SDS011;8342;42.736;23.292;2022-07-19T02:13:22;4.13;;;2.83;;
16462;SDS011;8342;42.736;23.292;2022-07-19T02:15:49;6.00;;;2.80;;
16462;SDS011;8342;42.736;23.292;2022-07-19T02:18:15;4.30;;;2.87;;
16462;SDS011;8342;42.736;23.292;2022-07-19T02:20:42;3.90;;;2.63;;
16462;SDS011;8342;42.736;23.292;2022-07-19T02:23:09;6.20;;;2.47;;
16462;SDS011;8342;42.736;23.292;2022-07-19T02:25:36;2.80;;;2.50;;
16462;SDS011;8342;42.736;23.292;2022-07-19T02:28:03;5.00;;;2.97;;
16462;SDS011;8342;42.736;23.292;2022-07-19T02:30:31;3.93;;;2.77;;
16462;SDS011;8342;42.736;23.292;2022-07-19T02:32:58;4.67;;;2.93;;
16462;SDS011;8342;42.736;23.292;2022-07-19T02:35:25;5.33;;;3.10;;
16462;SDS011;8342;42.736;23.292;2022-07-19T02:37:52;2.90;;;2.70;;
16462;SDS011;8342;42.736;23.292;2022-07-19T02:40:18;6.90;;;3.00;;
16462;SDS011;8342;42.736;23.292;2022-07-19T02:42:45;3.23;;;2.87;;
16462;SDS011;8342;42.736;23.292;2022-07-19T02:45:12;3.03;;;2.50;;
16462;SDS011;8342;42.736;23.292;2022-07-19T02:47:40;3.37;;;3.07;;
16462;SDS011;8342;42.736;23.292;2022-07-19T02:50:07;3.57;;;2.97;;
16462;SDS011;8342;42.736;23.292;2022-07-19T02:52:34;3.80;;;3.47;;
16462;SDS011;8342;42.736;23.292;2022-07-19T02:55:01;5.07;;;3.90;;
16462;SDS011;8342;42.736;23.292;2022-07-19T02:57:28;7.63;;;4.77;;
16462;SDS011;8342;42.736;23.292;2022-07-19T02:59:55;8.07;;;5.13;;
16462;SDS011;8342;42.736;23.292;2022-07-19T03:02:21;5.83;;;5.07;;
16462;SDS011;8342;42.736;23.292;2022-07-19T03:04:50;5.40;;;4.90;;
16462;SDS011;8342;42.736;23.292;2022-07-19T03:07:17;6.57;;;5.97;;
16462;SDS011;8342;42.736;23.292;2022-07-19T03:09:43;6.60;;;6.00;;
16462;SDS011;8342;42.736;23.292;2022-07-19T03:12:11;9.60;;;5.97;;
16462;SDS011;8342;42.736;23.292;2022-07-19T03:14:37;12.07;;;6.67;;
16462;SDS011;8342;42.736;23.292;2022-07-19T03:17:04;8.00;;;6.30;;
16462;SDS011;8342;42.736;23.292;2022-07-19T03:19:31;10.10;;;5.93;;
16462;SDS011;8342;42.736;23.292;2022-07-19T03:21:59;7.20;;;6.50;;
16462;SDS011;8342;42.736;23.292;2022-07-19T03:24:26;5.27;;;4.30;;
16462;SDS011;8342;42.736;23.292;2022-07-19T03:26:53;4.97;;;3.47;;
16462;SDS011;8342;42.736;23.292;2022-07-19T03:29:19;5.03;;;3.03;;
16462;SDS011;8342;42.736;23.292;2022-07-19T03:31:46;3.67;;;3.37;;
16462;SDS011;8342;42.736;23.292;2022-07-19T03:34:13;4.00;;;3.23;;
16462;SDS011;8342;42.736;23.292;2022-07-19T03:36:40;7.00;;;3.17;;
16462;SDS011;8342;42.736;23.292;2022-07-19T03:39:08;3.47;;;3.10;;
16462;SDS011;8342;42.736;23.292;2022-07-19T03:41:35;3.47;;;3.00;;
16462;SDS011;8342;42.736;23.292;2022-07-19T03:44:02;5.30;;;3.37;;
16462;SDS011;8342;42.736;23.292;2022-07-19T03:46:29;3.43;;;3.10;;
16462;SDS011;8342;42.736;23.292;2022-07-19T03:48:56;5.30;;;3.00;;
16462;SDS011;8342;42.736;23.292;2022-07-19T03:51:23;3.27;;;2.90;;
16462;SDS011;8342;42.736;23.292;2022-07-19T03:53:50;4.17;;;3.20;;
16462;SDS011;8342;42.736;23.292;2022-07-19T03:56:18;10.67;;;3.10;;
16462;SDS011;8342;42.736;23.292;2022-07-19T03:58:46;3.37;;;3.03;;
16462;SDS011;8342;42.736;23.292;2022-07-19T04:01:13;4.77;;;3.00;;
16462;SDS011;8342;42.736;23.292;2022-07-19T04:03:40;4.17;;;3.17;;
16462;SDS011;8342;42.736;23.292;2022-07-19T04:06:08;5.27;;;3.20;;
16462;SDS011;8342;42.736;23.292;2022-07-19T04:08:36;4.77;;;3.53;;
16462;SDS011;8342;42.736;23.292;2022-07-19T04:11:03;4.77;;;3.10;;
16462;SDS011;8342;42.736;23.292;2022-07-19T04:13:32;8.57;;;3.93;;
16462;SDS011;8342;42.736;23.292;2022-07-19T04:16:00;5.37;;;4.50;;
16462;SDS011;8342;42.736;23.292;2022-07-19T04:18:27;5.70;;;4.13;;
16462;SDS011;8342;42.736;23.292;2022-07-19T04:20:54;6.87;;;3.63;;
16462;SDS011;8342;42.736;23.292;2022-07-19T04:23:21;5.97;;;4.47;;
16462;SDS011;8342;42.736;23.292;2022-07-19T04:25:48;5.87;;;4.40;;
16462;SDS011;8342;42.736;23.292;2022-07-19T04:28:15;11.83;;;4.80;;
16462;SDS011;8342;42.736;23.292;2022-07-19T04:30:43;10.20;;;4.53;;
16462;SDS011;8342;42.736;23.292;2022-07-19T04:33:12;5.63;;;4.33;;
16462;SDS011;8342;42.736;23.292;2022-07-19T04:35:40;6.57;;;3.80;;
16462;SDS011;8342;42.736;23.292;2022-07-19T04:38:06;7.43;;;4.33;;
16462;SDS011;8342;42.736;23.292;2022-07-19T04:40:33;7.53;;;4.57;;
16462;SDS011;8342;42.736;23.292;2022-07-19T04:43:00;11.53;;;4.60;;
16462;SDS011;8342;42.736;23.292;2022-07-19T04:45:27;11.27;;;4.67;;
16462;SDS011;8342;42.736;23.292;2022-07-19T04:47:56;9.00;;;4.37;;
16462;SDS011;8342;42.736;23.292;2022-07-19T04:50:23;7.63;;;4.60;;
16462;SDS011;8342;42.736;23.292;2022-07-19T04:56:03;8.00;;;4.80;;
16462;SDS011;8342;42.736;23.292;2022-07-19T04:58:31;10.50;;;5.07;;
16462;SDS011;8342;42.736;23.292;2022-07-19T05:00:57;12.37;;;4.57;;
16462;SDS011;8342;42.736;23.292;2022-07-19T05:03:25;7.93;;;5.40;;
16462;SDS011;8342;42.736;23.292;2022-07-19T05:05:52;6.33;;;4.03;;
16462;SDS011;8342;42.736;23.292;2022-07-19T05:08:19;10.07;;;4.07;;
16462;SDS011;8342;42.736;23.292;2022-07-19T05:10:46;16.87;;;4.50;;
16462;SDS011;8342;42.736;23.292;2022-07-19T05:13:13;11.07;;;4.60;;
16462;SDS011;8342;42.736;23.292;2022-07-19T05:15:40;4.90;;;4.07;;
16462;SDS011;8342;42.736;23.292;2022-07-19T05:18:06;7.87;;;4.20;;
16462;SDS011;8342;42.736;23.292;2022-07-19T05:20:35;6.50;;;4.47;;
16462;SDS011;8342;42.736;23.292;2022-07-19T05:23:01;9.30;;;4.80;;
16462;SDS011;8342;42.736;23.292;2022-07-19T05:25:28;7.80;;;4.40;;
16462;SDS011;8342;42.736;23.292;2022-07-19T05:27:55;6.87;;;4.63;;
16462;SDS011;8342;42.736;23.292;2022-07-19T05:30:22;29.50;;;5.13;;
16462;SDS011;8342;42.736;23.292;2022-07-19T05:32:49;7.50;;;3.93;;
16462;SDS011;8342;42.736;23.292;2022-07-19T05:35:16;7.67;;;3.80;;
16462;SDS011;8342;42.736;23.292;2022-07-19T05:37:44;3.67;;;3.30;;
16462;SDS011;8342;42.736;23.292;2022-07-19T05:40:11;7.97;;;3.50;;
16462;SDS011;8342;42.736;23.292;2022-07-19T05:42:38;4.83;;;2.90;;
16462;SDS011;8342;42.736;23.292;2022-07-19T05:45:05;7.87;;;3.50;;
16462;SDS011;8342;42.736;23.292;2022-07-19T05:47:32;4.93;;;3.43;;
16462;SDS011;8342;42.736;23.292;2022-07-19T05:49:59;6.87;;;3.80;;
16462;SDS011;8342;42.736;23.292;2022-07-19T05:52:26;3.03;;;2.67;;
16462;SDS011;8342;42.736;23.292;2022-07-19T05:54:54;3.00;;;2.80;;
16462;SDS011;8342;42.736;23.292;2022-07-19T05:57:21;6.80;;;2.87;;
16462;SDS011;8342;42.736;23.292;2022-07-19T05:59:47;3.50;;;2.60;;
16462;SDS011;8342;42.736;23.292;2022-07-19T06:02:14;3.70;;;2.80;;
16462;SDS011;8342;42.736;23.292;2022-07-19T06:04:41;5.80;;;2.77;;
16462;SDS011;8342;42.736;23.292;2022-07-19T06:07:08;9.10;;;3.13;;
16462;SDS011;8342;42.736;23.292;2022-07-19T06:09:36;3.00;;;2.50;;
16462;SDS011;8342;42.736;23.292;2022-07-19T06:12:04;8.33;;;2.97;;
16462;SDS011;8342;42.736;23.292;2022-07-19T06:14:31;4.27;;;3.40;;
16462;SDS011;8342;42.736;23.292;2022-07-19T06:16:58;6.27;;;3.43;;
16462;SDS011;8342;42.736;23.292;2022-07-19T06:19:25;7.30;;;3.07;;
16462;SDS011;8342;42.736;23.292;2022-07-19T06:21:52;4.83;;;2.93;;
16462;SDS011;8342;42.736;23.292;2022-07-19T06:24:19;5.60;;;2.93;;
16462;SDS011;8342;42.736;23.292;2022-07-19T06:26:46;3.27;;;2.67;;
16462;SDS011;8342;42.736;23.292;2022-07-19T06:29:14;8.33;;;3.43;;
16462;SDS011;8342;42.736;23.292;2022-07-19T06:31:41;6.30;;;2.23;;
16462;SDS011;8342;42.736;23.292;2022-07-19T06:34:07;3.53;;;2.70;;
16462;SDS011;8342;42.736;23.292;2022-07-19T06:36:34;5.37;;;2.77;;
16462;SDS011;8342;42.736;23.292;2022-07-19T06:39:01;3.03;;;2.80;;
16462;SDS011;8342;42.736;23.292;2022-07-19T06:41:28;5.13;;;3.17;;
16462;SDS011;8342;42.736;23.292;2022-07-19T06:43:55;9.20;;;2.90;;
16462;SDS011;8342;42.736;23.292;2022-07-19T06:46:23;2.90;;;2.70;;
16462;SDS011;8342;42.736;23.292;2022-07-19T06:48:50;6.63;;;3.60;;
16462;SDS011;8342;42.736;23.292;2022-07-19T06:51:16;4.33;;;2.70;;
16462;SDS011;8342;42.736;23.292;2022-07-19T06:53:43;4.97;;;2.70;;
16462;SDS011;8342;42.736;23.292;2022-07-19T06:56:10;4.87;;;3.33;;
16462;SDS011;8342;42.736;23.292;2022-07-19T06:58:37;6.27;;;2.70;;
16462;SDS011;8342;42.736;23.292;2022-07-19T07:01:04;3.40;;;2.83;;
16462;SDS011;8342;42.736;23.292;2022-07-19T07:03:32;3.20;;;2.70;;
16462;SDS011;8342;42.736;23.292;2022-07-19T07:05:59;4.50;;;2.40;;
16462;SDS011;8342;42.736;23.292;2022-07-19T07:08:25;4.97;;;2.77;;
16462;SDS011;8342;42.736;23.292;2022-07-19T07:10:52;7.17;;;2.80;;
16462;SDS011;8342;42.736;23.292;2022-07-19T07:13:19;6.87;;;2.90;;
16462;SDS011;8342;42.736;23.292;2022-07-19T07:15:46;4.83;;;2.73;;
16462;SDS011;8342;42.736;23.292;2022-07-19T07:18:13;6.00;;;4.80;;
16462;SDS011;8342;42.736;23.292;2022-07-19T07:20:41;6.17;;;4.33;;
16462;SDS011;8342;42.736;23.292;2022-07-19T07:23:08;5.30;;;3.07;;
16462;SDS011;8342;42.736;23.292;2022-07-19T07:25:35;7.27;;;2.77;;
16462;SDS011;8342;42.736;23.292;2022-07-19T07:28:02;6.93;;;3.20;;
16462;SDS011;8342;42.736;23.292;2022-07-19T07:30:29;4.87;;;3.60;;
16462;SDS011;8342;42.736;23.292;2022-07-19T07:32:56;5.70;;;3.07;;
16462;SDS011;8342;42.736;23.292;2022-07-19T07:35:22;5.10;;;2.57;;
16462;SDS011;8342;42.736;23.292;2022-07-19T07:37:51;2.37;;;2.10;;
16462;SDS011;8342;42.736;23.292;2022-07-19T07:40:18;4.67;;;2.57;;
16462;SDS011;8342;42.736;23.292;2022-07-19T07:42:45;5.07;;;2.47;;
16462;SDS011;8342;42.736;23.292;2022-07-19T07:45:12;3.47;;;2.60;;
16462;SDS011;8342;42.736;23.292;2022-07-19T07:47:39;3.07;;;2.70;;
16462;SDS011;8342;42.736;23.292;2022-07-19T07:50:06;7.30;;;3.10;;
16462;SDS011;8342;42.736;23.292;2022-07-19T07:52:34;4.87;;;2.60;;
16462;SDS011;8342;42.736;23.292;2022-07-19T07:55:02;3.77;;;2.40;;
16462;SDS011;8342;42.736;23.292;2022-07-19T07:57:30;3.03;;;2.53;;
16462;SDS011;8342;42.736;23.292;2022-07-19T07:59:57;9.10;;;3.30;;
16462;SDS011;8342;42.736;23.292;2022-07-19T08:02:24;3.50;;;2.17;;
16462;SDS011;8342;42.736;23.292;2022-07-19T08:04:51;3.33;;;2.30;;
16462;SDS011;8342;42.736;23.292;2022-07-19T08:07:18;4.70;;;2.00;;
16462;SDS011;8342;42.736;23.292;2022-07-19T08:09:45;2.87;;;2.20;;
16462;SDS011;8342;42.736;23.292;2022-07-19T08:12:13;3.63;;;2.87;;
16462;SDS011;8342;42.736;23.292;2022-07-19T08:14:40;3.50;;;2.53;;
16462;SDS011;8342;42.736;23.292;2022-07-19T08:17:07;2.50;;;2.30;;
16462;SDS011;8342;42.736;23.292;2022-07-19T08:19:33;7.27;;;2.73;;
16462;SDS011;8342;42.736;23.292;2022-07-19T08:22:00;8.30;;;2.63;;
16462;SDS011;8342;42.736;23.292;2022-07-19T08:24:27;2.50;;;2.30;;
16462;SDS011;8342;42.736;23.292;2022-07-19T08:26:54;6.73;;;2.30;;
16462;SDS011;8342;42.736;23.292;2022-07-19T08:29:23;2.17;;;2.07;;
16462;SDS011;8342;42.736;23.292;2022-07-19T08:31:50;21.73;;;3.60;;
16462;SDS011;8342;42.736;23.292;2022-07-19T08:34:16;2.57;;;2.37;;
16462;SDS011;8342;42.736;23.292;2022-07-19T08:36:43;3.13;;;2.67;;
16462;SDS011;8342;42.736;23.292;2022-07-19T08:39:10;5.27;;;2.87;;
16462;SDS011;8342;42.736;23.292;2022-07-19T08:41:37;4.23;;;2.80;;
16462;SDS011;8342;42.736;23.292;2022-07-19T08:44:04;4.93;;;2.60;;
16462;SDS011;8342;42.736;23.292;2022-07-19T08:46:32;2.80;;;2.30;;
16462;SDS011;8342;42.736;23.292;2022-07-19T08:48:59;7.23;;;2.93;;
16462;SDS011;8342;42.736;23.292;2022-07-19T08:51:26;6.57;;;2.67;;
16462;SDS011;8342;42.736;23.292;2022-07-19T08:53:53;4.37;;;3.10;;
16462;SDS011;8342;42.736;23.292;2022-07-19T08:56:21;6.07;;;3.27;;
16462;SDS011;8342;42.736;23.292;2022-07-19T08:59:05;2.90;;;2.47;;
16462;SDS011;8342;42.736;23.292;2022-07-19T09:01:33;3.13;;;2.40;;
16462;SDS011;8342;42.736;23.292;2022-07-19T09:04:07;3.77;;;2.50;;
16462;SDS011;8342;42.736;23.292;2022-07-19T09:06:39;8.70;;;2.87;;
16462;SDS011;8342;42.736;23.292;2022-07-19T09:09:08;4.37;;;2.70;;
16462;SDS011;8342;42.736;23.292;2022-07-19T09:11:35;4.43;;;2.57;;
16462;SDS011;8342;42.736;23.292;2022-07-19T09:14:04;4.03;;;2.40;;
16462;SDS011;8342;42.736;23.292;2022-07-19T09:16:51;2.87;;;2.50;;
16462;SDS011;8342;42.736;23.292;2022-07-19T09:19:23;4.33;;;2.30;;
16462;SDS011;8342;42.736;23.292;2022-07-19T09:21:54;3.97;;;2.60;;
16462;SDS011;8342;42.736;23.292;2022-07-19T09:24:22;3.33;;;2.47;;
16462;SDS011;8342;42.736;23.292;2022-07-19T09:26:53;2.63;;;2.30;;
16462;SDS011;8342;42.736;23.292;2022-07-19T09:29:22;3.60;;;2.70;;
16462;SDS011;8342;42.736;23.292;2022-07-19T09:32:00;5.53;;;2.67;;
16462;SDS011;8342;42.736;23.292;2022-07-19T09:34:32;4.03;;;2.70;;
16462;SDS011;8342;42.736;23.292;2022-07-19T09:37:10;2.73;;;2.33;;
16462;SDS011;8342;42.736;23.292;2022-07-19T09:39:38;4.57;;;2.70;;
16462;SDS011;8342;42.736;23.292;2022-07-19T09:42:07;4.00;;;2.70;;
16462;SDS011;8342;42.736;23.292;2022-07-19T09:44:34;3.17;;;2.53;;
16462;SDS011;8342;42.736;23.292;2022-07-19T09:47:02;4.87;;;2.30;;
16462;SDS011;8342;42.736;23.292;2022-07-19T09:49:29;2.77;;;2.50;;
16462;SDS011;8342;42.736;23.292;2022-07-19T09:51:59;2.70;;;2.50;;
16462;SDS011;8342;42.736;23.292;2022-07-19T09:54:28;5.20;;;2.70;;
16462;SDS011;8342;42.736;23.292;2022-07-19T09:56:57;3.43;;;3.10;;
16462;SDS011;8342;42.736;23.292;2022-07-19T09:59:25;3.43;;;2.60;;
16462;SDS011;8342;42.736;23.292;2022-07-19T10:01:53;3.80;;;2.63;;
16462;SDS011;8342;42.736;23.292;2022-07-19T10:04:22;4.27;;;2.70;;
16462;SDS011;8342;42.736;23.292;2022-07-19T10:06:50;4.93;;;2.73;;
16462;SDS011;8342;42.736;23.292;2022-07-19T10:09:19;3.27;;;2.43;;
16462;SDS011;8342;42.736;23.292;2022-07-19T10:11:46;5.07;;;3.10;;
16462;SDS011;8342;42.736;23.292;2022-07-19T10:14:13;6.50;;;3.80;;
16462;SDS011;8342;42.736;23.292;2022-07-19T10:17:02;9.00;;;3.33;;
16462;SDS011;8342;42.736;23.292;2022-07-19T10:19:38;8.63;;;3.00;;
16462;SDS011;8342;42.736;23.292;2022-07-19T10:22:07;7.30;;;3.27;;
16462;SDS011;8342;42.736;23.292;2022-07-19T10:24:46;5.13;;;3.13;;
16462;SDS011;8342;42.736;23.292;2022-07-19T10:27:15;4.07;;;2.90;;
16462;SDS011;8342;42.736;23.292;2022-07-19T10:29:43;6.67;;;2.60;;
16462;SDS011;8342;42.736;23.292;2022-07-19T10:32:12;7.10;;;3.30;;
16462;SDS011;8342;42.736;23.292;2022-07-19T10:34:41;3.50;;;3.20;;
16462;SDS011;8342;42.736;23.292;2022-07-19T10:37:11;3.40;;;3.10;;
16462;SDS011;8342;42.736;23.292;2022-07-19T10:39:38;2.93;;;2.60;;
16462;SDS011;8342;42.736;23.292;2022-07-19T10:42:06;3.30;;;2.47;;
16462;SDS011;8342;42.736;23.292;2022-07-19T10:44:35;2.87;;;2.67;;
16462;SDS011;8342;42.736;23.292;2022-07-19T10:47:02;7.37;;;3.27;;
16462;SDS011;8342;42.736;23.292;2022-07-19T10:49:43;4.73;;;2.87;;
16462;SDS011;8342;42.736;23.292;2022-07-19T10:52:31;5.40;;;4.07;;
16462;SDS011;8342;42.736;23.292;2022-07-19T10:58:07;4.90;;;2.73;;
16462;SDS011;8342;42.736;23.292;2022-07-19T11:00:40;3.50;;;2.50;;
16462;SDS011;8342;42.736;23.292;2022-07-19T11:03:27;3.70;;;2.50;;
16462;SDS011;8342;42.736;23.292;2022-07-19T11:05:58;5.17;;;2.93;;
16462;SDS011;8342;42.736;23.292;2022-07-19T11:08:32;5.77;;;2.93;;
16462;SDS011;8342;42.736;23.292;2022-07-19T11:11:04;2.40;;;2.30;;
16462;SDS011;8342;42.736;23.292;2022-07-19T11:13:32;3.83;;;2.73;;
16462;SDS011;8342;42.736;23.292;2022-07-19T11:15:59;5.57;;;3.13;;
16462;SDS011;8342;42.736;23.292;2022-07-19T11:18:28;4.07;;;2.30;;
16462;SDS011;8342;42.736;23.292;2022-07-19T11:20:57;2.73;;;2.53;;
16462;SDS011;8342;42.736;23.292;2022-07-19T11:23:27;3.40;;;2.80;;
16462;SDS011;8342;42.736;23.292;2022-07-19T11:26:04;4.10;;;2.70;;
16462;SDS011;8342;42.736;23.292;2022-07-19T11:28:32;2.83;;;2.50;;
16462;SDS011;8342;42.736;23.292;2022-07-19T11:30:58;2.53;;;2.33;;
16462;SDS011;8342;42.736;23.292;2022-07-19T11:33:25;2.70;;;2.50;;
16462;SDS011;8342;42.736;23.292;2022-07-19T11:35:53;2.83;;;2.63;;
16462;SDS011;8342;42.736;23.292;2022-07-19T11:38:22;3.17;;;2.53;;
16462;SDS011;8342;42.736;23.292;2022-07-19T11:40:49;2.80;;;2.50;;
16462;SDS011;8342;42.736;23.292;2022-07-19T11:43:16;7.90;;;3.57;;
16462;SDS011;8342;42.736;23.292;2022-07-19T11:45:44;2.93;;;2.70;;
16462;SDS011;8342;42.736;23.292;2022-07-19T11:48:24;3.77;;;2.57;;
16462;SDS011;8342;42.736;23.292;2022-07-19T11:51:03;3.17;;;2.50;;
16462;SDS011;8342;42.736;23.292;2022-07-19T11:53:33;4.77;;;2.47;;
16462;SDS011;8342;42.736;23.292;2022-07-19T11:56:01;8.10;;;2.80;;
16462;SDS011;8342;42.736;23.292;2022-07-19T11:58:29;3.03;;;2.50;;
16462;SDS011;8342;42.736;23.292;2022-07-19T12:01:00;4.37;;;2.47;;
16462;SDS011;8342;42.736;23.292;2022-07-19T12:03:27;3.67;;;2.40;;
16462;SDS011;8342;42.736;23.292;2022-07-19T12:05:55;2.57;;;2.37;;
16462;SDS011;8342;42.736;23.292;2022-07-19T12:08:31;2.70;;;2.30;;
16462;SDS011;8342;42.736;23.292;2022-07-19T12:11:00;2.17;;;2.07;;
16462;SDS011;8342;42.736;23.292;2022-07-19T12:13:28;2.27;;;2.10;;
16462;SDS011;8342;42.736;23.292;2022-07-19T12:15:57;2.80;;;2.60;;
16462;SDS011;8342;42.736;23.292;2022-07-19T12:21:16;2.23;;;2.03;;
16462;SDS011;8342;42.736;23.292;2022-07-19T12:26:37;3.50;;;2.13;;
16462;SDS011;8342;42.736;23.292;2022-07-19T12:29:18;2.63;;;2.30;;
16462;SDS011;8342;42.736;23.292;2022-07-19T12:31:45;2.33;;;2.20;;
16462;SDS011;8342;42.736;23.292;2022-07-19T12:34:13;4.77;;;2.50;;
16462;SDS011;8342;42.736;23.292;2022-07-19T12:36:40;3.40;;;2.20;;
16462;SDS011;8342;42.736;23.292;2022-07-19T12:39:17;1.90;;;1.80;;
16462;SDS011;8342;42.736;23.292;2022-07-19T12:41:55;3.40;;;2.50;;
16462;SDS011;8342;42.736;23.292;2022-07-19T12:44:30;3.97;;;3.10;;
16462;SDS011;8342;42.736;23.292;2022-07-19T12:46:57;4.33;;;2.40;;
16462;SDS011;8342;42.736;23.292;2022-07-19T12:49:24;3.00;;;2.70;;
16462;SDS011;8342;42.736;23.292;2022-07-19T12:51:51;3.03;;;2.20;;
16462;SDS011;8342;42.736;23.292;2022-07-19T12:54:20;3.33;;;2.33;;
16462;SDS011;8342;42.736;23.292;2022-07-19T12:56:47;3.43;;;3.03;;
16462;SDS011;8342;42.736;23.292;2022-07-19T12:59:13;2.47;;;2.27;;
16462;SDS011;8342;42.736;23.292;2022-07-19T13:01:57;6.00;;;2.20;;
16462;SDS011;8342;42.736;23.292;2022-07-19T13:04:24;2.40;;;2.07;;
16462;SDS011;8342;42.736;23.292;2022-07-19T13:06:51;7.90;;;2.40;;
16462;SDS011;8342;42.736;23.292;2022-07-19T13:09:19;5.70;;;3.43;;
16462;SDS011;8342;42.736;23.292;2022-07-19T13:11:46;2.50;;;2.10;;
16462;SDS011;8342;42.736;23.292;2022-07-19T13:14:13;4.50;;;2.40;;
16462;SDS011;8342;42.736;23.292;2022-07-19T13:16:40;2.73;;;2.37;;
16462;SDS011;8342;42.736;23.292;2022-07-19T13:19:07;2.37;;;2.17;;
16462;SDS011;8342;42.736;23.292;2022-07-19T13:21:34;13.50;;;2.97;;
16462;SDS011;8342;42.736;23.292;2022-07-19T13:24:01;2.80;;;2.40;;
16462;SDS011;8342;42.736;23.292;2022-07-19T13:26:30;2.10;;;1.90;;
16462;SDS011;8342;42.736;23.292;2022-07-19T13:28:56;3.13;;;2.07;;
16462;SDS011;8342;42.736;23.292;2022-07-19T13:31:23;4.00;;;2.10;;
16462;SDS011;8342;42.736;23.292;2022-07-19T13:33:50;2.63;;;1.90;;
16462;SDS011;8342;42.736;23.292;2022-07-19T13:36:17;2.87;;;2.20;;
16462;SDS011;8342;42.736;23.292;2022-07-19T13:38:44;3.40;;;2.40;;
16462;SDS011;8342;42.736;23.292;2022-07-19T13:41:13;2.47;;;2.17;;
16462;SDS011;8342;42.736;23.292;2022-07-19T13:43:42;6.73;;;2.60;;
16462;SDS011;8342;42.736;23.292;2022-07-19T13:46:09;4.97;;;2.43;;
16462;SDS011;8342;42.736;23.292;2022-07-19T13:48:36;2.93;;;2.73;;
16462;SDS011;8342;42.736;23.292;2022-07-19T13:51:02;2.30;;;1.93;;
16462;SDS011;8342;42.736;23.292;2022-07-19T13:53:29;5.20;;;3.10;;
16462;SDS011;8342;42.736;23.292;2022-07-19T13:55:56;2.00;;;1.90;;
16462;SDS011;8342;42.736;23.292;2022-07-19T13:58:23;3.60;;;2.27;;
16462;SDS011;8342;42.736;23.292;2022-07-19T14:00:51;2.03;;;1.90;;
16462;SDS011;8342;42.736;23.292;2022-07-19T14:03:18;6.20;;;2.63;;
16462;SDS011;8342;42.736;23.292;2022-07-19T14:05:45;1.83;;;1.73;;
16462;SDS011;8342;42.736;23.292;2022-07-19T14:08:13;2.03;;;1.93;;
16462;SDS011;8342;42.736;23.292;2022-07-19T14:10:40;4.53;;;2.10;;
16462;SDS011;8342;42.736;23.292;2022-07-19T14:13:07;1.90;;;1.77;;
16462;SDS011;8342;42.736;23.292;2022-07-19T14:15:34;1.93;;;1.83;;
16462;SDS011;8342;42.736;23.292;2022-07-19T14:18:03;2.30;;;2.10;;
16462;SDS011;8342;42.736;23.292;2022-07-19T14:20:29;1.83;;;1.40;;
16462;SDS011;8342;42.736;23.292;2022-07-19T14:22:56;2.73;;;2.00;;
16462;SDS011;8342;42.736;23.292;2022-07-19T14:25:23;1.87;;;1.70;;
16462;SDS011;8342;42.736;23.292;2022-07-19T14:27:50;1.77;;;1.67;;
16462;SDS011;8342;42.736;23.292;2022-07-19T14:30:17;2.23;;;2.03;;
16462;SDS011;8342;42.736;23.292;2022-07-19T14:32:44;2.67;;;2.10;;
16462;SDS011;8342;42.736;23.292;2022-07-19T14:35:12;2.03;;;1.70;;
16462;SDS011;8342;42.736;23.292;2022-07-19T14:37:41;2.03;;;1.90;;
16462;SDS011;8342;42.736;23.292;2022-07-19T14:40:08;2.90;;;1.90;;
16462;SDS011;8342;42.736;23.292;2022-07-19T14:42:36;2.33;;;1.40;;
16462;SDS011;8342;42.736;23.292;2022-07-19T14:45:03;6.70;;;2.00;;
16462;SDS011;8342;42.736;23.292;2022-07-19T14:47:31;4.50;;;1.87;;
16462;SDS011;8342;42.736;23.292;2022-07-19T14:49:58;2.80;;;1.70;;
16462;SDS011;8342;42.736;23.292;2022-07-19T14:52:26;2.90;;;2.00;;
16462;SDS011;8342;42.736;23.292;2022-07-19T14:54:53;2.83;;;1.90;;
16462;SDS011;8342;42.736;23.292;2022-07-19T14:57:21;4.20;;;2.00;;
16462;SDS011;8342;42.736;23.292;2022-07-19T14:59:48;1.73;;;1.63;;
16462;SDS011;8342;42.736;23.292;2022-07-19T15:02:15;1.90;;;1.80;;
16462;SDS011;8342;42.736;23.292;2022-07-19T15:04:42;1.67;;;1.57;;